Time;durP1;ratioP1;P1;durP2;ratioP2;P2;SDS_P1;SDS_P2;PMS_P1;PMS_P2;Temp;Humidity;BMP_temperature;BMP_pressure;BME280_temperature;BME280_humidity;BME280_pressure;Samples;Min_cycle;Max_cycle;Signal;HPM_P1;HPM_P2
2024/04/12 00:00:47;;;;;;;;;;;;;;;12.94;100.00;95772.28;11408988;26;19931;-73
2024/04/12 00:05:47;;;;;;;;;;;;;;;12.98;100.00;95771.50;11408721;26;19927;-72
2024/04/12 00:10:47;;;;;;;;;;;;;;;12.96;100.00;95778.22;11408167;26;19935;-73
2024/04/12 00:15:47;;;;;;;;;;;;;;;13.00;100.00;95784.72;11376100;26;19972;-73
2024/04/12 00:20:48;;;;;;;;;;;;;;;13.01;100.00;95780.16;11403368;26;19927;-73
2024/04/12 00:25:50;;;;;;;;;;;;;;;12.96;100.00;95779.03;11408740;26;20324;-74
2024/04/12 00:30:51;;;;;;;;;;;;;;;12.91;100.00;95789.81;11408335;26;20651;-73
2024/04/12 00:35:54;;;;;;;;;;;;;;;12.80;100.00;95793.53;11374468;26;19995;-74
2024/04/12 00:40:54;;;;;;;;;;;;;;;12.79;100.00;95792.69;11407705;26;19927;-73
2024/04/12 00:45:56;;;;;;;;;;;;;;;12.76;100.00;95800.50;11407727;26;19927;-73
2024/04/12 00:50:56;;;;;;;;;;;;;;;12.62;100.00;95803.66;11391055;26;20250;-74
2024/04/12 00:56:00;;;;;;;;;;;;;;;12.61;100.00;95804.75;11404035;26;19935;-73
2024/04/12 01:01:15;;;;;;;;;;;;;;;12.50;100.00;95796.81;11402221;26;20323;-73
2024/04/12 01:06:16;;;;;;;;;;;;;;;12.44;100.00;95798.66;11382010;26;20318;-72
2024/04/12 01:11:19;;;;;;;;;;;;;;;12.43;100.00;95797.03;11405417;26;19955;-74
2024/04/12 01:16:23;;;;;;;;;;;;;;;12.46;100.00;95789.25;11405154;26;19928;-73
2024/04/12 01:21:24;;;;;;;;;;;;;;;12.22;100.00;95794.19;11399163;26;19927;-73
2024/04/12 01:26:24;;;;;;;;;;;;;;;12.38;100.00;95787.03;11405430;26;19927;-73
2024/04/12 01:31:27;;;;;;;;;;;;;;;12.32;100.00;95793.44;11406042;26;20255;-73
2024/04/12 01:36:28;;;;;;;;;;;;;;;12.08;100.00;95795.69;11402926;26;20361;-73
2024/04/12 01:41:34;;;;;;;;;;;;;;;11.97;100.00;95789.38;11383025;26;19934;-73
2024/04/12 01:46:39;;;;;;;;;;;;;;;11.98;100.00;95785.63;11396358;26;20223;-74
2024/04/12 01:51:41;;;;;;;;;;;;;;;12.01;100.00;95790.50;11404041;26;19927;-73
2024/04/12 01:56:47;;;;;;;;;;;;;;;12.10;100.00;95797.06;11404576;26;19996;-73
2024/04/12 02:01:48;;;;;;;;;;;;;;;12.14;100.00;95790.09;11400926;26;19927;-73
2024/04/12 02:06:49;;;;;;;;;;;;;;;12.02;100.00;95791.34;11402419;26;19955;-73
2024/04/12 02:11:53;;;;;;;;;;;;;;;11.95;100.00;95789.66;11402709;26;20334;-73
2024/04/12 02:16:53;;;;;;;;;;;;;;;11.95;100.00;95796.94;11403323;26;19943;-72
2024/04/12 02:21:54;;;;;;;;;;;;;;;12.13;100.00;95793.03;11400782;26;19967;-72
2024/04/12 02:26:54;;;;;;;;;;;;;;;12.16;100.00;95797.91;11402934;26;19939;-73
2024/04/12 02:31:55;;;;;;;;;;;;;;;12.12;100.00;95797.59;11399076;26;19938;-73
2024/04/12 02:37:01;;;;;;;;;;;;;;;12.18;100.00;95801.19;11399128;26;19939;-74
2024/04/12 02:42:02;;;;;;;;;;;;;;;12.16;100.00;95806.00;11379531;26;19980;-72
2024/04/12 02:47:04;;;;;;;;;;;;;;;12.06;100.00;95798.63;11368808;26;20405;-73
2024/04/12 02:52:05;;;;;;;;;;;;;;;12.00;100.00;95799.69;11398981;26;19935;-73
2024/04/12 02:57:05;;;;;;;;;;;;;;;11.95;100.00;95802.31;11401616;26;20354;-73
2024/04/12 03:02:05;;;;;;;;;;;;;;;11.67;100.00;95804.16;11403876;26;19947;-72
2024/04/12 03:07:11;;;;;;;;;;;;;;;11.59;100.00;95805.41;11373659;26;19935;-72
2024/04/12 03:12:12;;;;;;;;;;;;;;;11.56;100.00;95805.94;11409257;26;19943;-73
2024/04/12 03:17:12;;;;;;;;;;;;;;;11.54;100.00;95812.63;11408257;26;20278;-73
2024/04/12 03:22:13;;;;;;;;;;;;;;;11.46;100.00;95812.00;11409731;26;20242;-72
2024/04/12 03:27:13;;;;;;;;;;;;;;;11.44;100.00;95802.56;11410488;26;19940;-74
2024/04/12 03:32:14;;;;;;;;;;;;;;;11.42;100.00;95827.03;11409504;26;19942;-74
2024/04/12 03:37:36;;;;;;;;;;;;;;;11.56;100.00;95821.28;11377533;26;19927;-72
2024/04/12 03:42:41;;;;;;;;;;;;;;;11.60;100.00;95827.78;11409555;26;19927;-74
2024/04/12 03:47:45;;;;;;;;;;;;;;;11.59;100.00;95834.22;11408481;26;19939;-74
2024/04/12 03:52:45;;;;;;;;;;;;;;;11.51;100.00;95843.59;11407926;26;19935;-74
2024/04/12 03:57:45;;;;;;;;;;;;;;;11.49;100.00;95847.59;11406427;26;20295;-74
2024/04/12 04:02:48;;;;;;;;;;;;;;;11.50;100.00;95849.19;11406236;26;20311;-73
2024/04/12 04:07:49;;;;;;;;;;;;;;;11.52;100.00;95850.56;11406545;26;20619;-72
2024/04/12 04:12:49;;;;;;;;;;;;;;;11.57;100.00;95860.59;11394656;26;20224;-73
2024/04/12 04:17:49;;;;;;;;;;;;;;;11.60;100.00;95855.50;11405927;26;20250;-72
2024/04/12 04:22:50;;;;;;;;;;;;;;;11.65;100.00;95857.44;11372060;26;19927;-72
2024/04/12 04:27:50;;;;;;;;;;;;;;;11.76;100.00;95856.53;11405336;26;19934;-72
2024/04/12 04:32:52;;;;;;;;;;;;;;;11.80;100.00;95859.50;11407635;26;20246;-73
2024/04/12 04:37:56;;;;;;;;;;;;;;;11.91;100.00;95855.84;11406901;26;19928;-72
2024/04/12 04:42:56;;;;;;;;;;;;;;;12.00;100.00;95864.34;11406626;26;19928;-72
2024/04/12 04:47:56;;;;;;;;;;;;;;;12.13;100.00;95869.31;11406453;26;19934;-72
2024/04/12 04:52:57;;;;;;;;;;;;;;;12.25;100.00;95871.84;11405973;26;19955;-72
2024/04/12 04:57:59;;;;;;;;;;;;;;;12.41;100.00;95870.09;11404112;26;19927;-72
2024/04/12 05:03:00;;;;;;;;;;;;;;;12.74;100.00;95872.78;11399061;26;20274;-73
2024/04/12 05:08:05;;;;;;;;;;;;;;;13.01;100.00;95872.69;11404266;26;19995;-72
2024/04/12 05:13:06;;;;;;;;;;;;;;;13.26;100.00;95876.63;11345944;26;20266;-72
2024/04/12 05:18:06;;;;;;;;;;;;;;;13.71;100.00;95874.44;11403749;26;19927;-72
2024/04/12 05:23:13;;;;;;;;;;;;;;;14.01;100.00;95879.91;11402288;26;19928;-74
2024/04/12 05:28:13;;;;;;;;;;;;;;;14.36;100.00;95872.94;11379871;26;19943;-72
2024/04/12 05:33:16;;;;;;;;;;;;;;;14.74;100.00;95874.63;11405117;26;20214;-74
2024/04/12 05:38:20;;;;;;;;;;;;;;;15.20;100.00;95872.66;11366283;26;20395;-73
2024/04/12 05:43:25;;;;;;;;;;;;;;;15.77;100.00;95875.19;11403214;26;19927;-74
2024/04/12 05:48:27;;;;;;;;;;;;;;;16.31;100.00;95875.47;11370000;26;20458;-73
2024/04/12 05:53:30;;;;;;;;;;;;;;;16.85;100.00;95870.97;11403483;26;19928;-72
2024/04/12 05:58:31;;;;;;;;;;;;;;;17.58;93.07;95871.88;11403177;26;19935;-72
2024/04/12 06:03:31;;;;;;;;;;;;;;;18.57;82.82;95862.16;11402030;26;20496;-72
2024/04/12 06:08:31;;;;;;;;;;;;;;;19.42;75.70;95872.16;11399358;26;20292;-72
2024/04/12 06:13:31;;;;;;;;;;;;;;;20.39;67.65;95865.84;11399450;26;19927;-72
2024/04/12 06:18:32;;;;;;;;;;;;;;;21.16;58.70;95861.25;11399060;26;19935;-73
2024/04/12 06:23:34;;;;;;;;;;;;;;;21.27;57.02;95859.88;11396790;26;19927;-72
2024/04/12 06:28:37;;;;;;;;;;;;;;;20.97;58.23;95854.09;11397798;26;19939;-73
2024/04/12 06:33:39;;;;;;;;;;;;;;;20.98;56.18;95854.88;11396704;26;19997;-74
2024/04/12 06:38:40;;;;;;;;;;;;;;;20.42;60.31;95857.81;11408540;26;20399;-73
2024/04/12 06:43:43;;;;;;;;;;;;;;;20.70;60.39;95863.22;11410625;26;20250;-73
2024/04/12 06:48:43;;;;;;;;;;;;;;;20.79;57.88;95858.63;11409431;26;19939;-74
2024/04/12 06:53:46;;;;;;;;;;;;;;;20.49;62.73;95866.41;11406599;26;20353;-75
2024/04/12 06:58:48;;;;;;;;;;;;;;;20.94;60.23;95859.34;11411318;26;19928;-77
2024/04/12 07:03:49;;;;;;;;;;;;;;;21.27;55.20;95856.34;11411764;26;20262;-75
2024/04/12 07:08:50;;;;;;;;;;;;;;;21.78;53.40;95859.59;11408658;26;19928;-78
2024/04/12 07:13:50;;;;;;;;;;;;;;;22.16;52.43;95859.06;11400888;26;19927;-75
2024/04/12 07:18:51;;;;;;;;;;;;;;;22.97;51.38;95849.41;11409085;26;20003;-74
2024/04/12 07:23:51;;;;;;;;;;;;;;;24.01;44.88;95839.19;11409148;26;19927;-75
2024/04/12 07:28:58;;;;;;;;;;;;;;;25.96;39.87;95834.25;11408280;26;20246;-75
2024/04/12 07:33:59;;;;;;;;;;;;;;;28.05;35.35;95832.50;11408382;26;20708;-74
2024/04/12 07:39:01;;;;;;;;;;;;;;;29.05;31.97;95827.47;11375795;26;19967;-76
2024/04/12 07:44:04;;;;;;;;;;;;;;;30.06;30.97;95807.06;11406379;26;19934;-76
2024/04/12 07:49:07;;;;;;;;;;;;;;;30.71;30.79;95805.16;11404227;26;19959;-78
2024/04/12 07:54:11;;;;;;;;;;;;;;;30.39;29.64;95805.53;11407444;26;20327;-80
2024/04/12 07:59:25;;;;;;;;;;;;;;;31.70;28.16;95803.03;11412787;26;19947;-82
2024/04/12 08:04:36;;;;;;;;;;;;;;;32.42;27.09;95803.53;11408975;26;19964;-74
2024/04/12 08:09:44;;;;;;;;;;;;;;;32.83;25.24;95797.75;11404818;26;20339;-74
2024/04/12 08:15:06;;;;;;;;;;;;;;;32.87;25.28;95795.78;11408604;26;20238;-74
2024/04/12 08:20:13;;;;;;;;;;;;;;;33.52;25.13;95798.72;11407028;26;19941;-74
2024/04/12 08:25:17;;;;;;;;;;;;;;;31.92;27.66;95804.00;11374286;26;19927;-73
2024/04/12 08:30:19;;;;;;;;;;;;;;;33.62;24.60;95791.56;11359016;26;19935;-73
2024/04/12 08:35:19;;;;;;;;;;;;;;;33.94;23.90;95792.75;11375540;26;19939;-73
2024/04/12 08:40:21;;;;;;;;;;;;;;;34.17;24.07;95795.91;11337587;26;19995;-77
2024/04/12 08:45:26;;;;;;;;;;;;;;;34.17;23.32;95784.75;11404562;26;19964;-77
2024/04/12 08:50:31;;;;;;;;;;;;;;;31.02;28.95;95783.72;11397253;26;20259;-78
2024/04/12 08:55:33;;;;;;;;;;;;;;;28.21;31.61;95790.19;11405948;26;19963;-77
2024/04/12 09:00:33;;;;;;;;;;;;;;;28.87;31.92;95782.06;11404598;26;19927;-76
2024/04/12 09:05:38;;;;;;;;;;;;;;;31.09;28.83;95778.25;11405256;26;19927;-77
2024/04/12 09:10:39;;;;;;;;;;;;;;;33.45;26.56;95765.28;11404545;26;19928;-76
2024/04/12 09:15:42;;;;;;;;;;;;;;;32.85;25.66;95756.41;11405260;26;19927;-76
2024/04/12 09:20:44;;;;;;;;;;;;;;;31.17;27.74;95763.28;11404875;26;19927;-76
2024/04/12 09:25:45;;;;;;;;;;;;;;;30.04;29.00;95758.72;11405196;26;20639;-76
2024/04/12 09:36:13;;;;;;;;;;;;;;;29.24;30.13;95751.91;11398472;26;20684;-77
2024/04/12 09:41:29;;;;;;;;;;;;;;;29.14;29.74;95741.44;11395467;26;19937;-75
2024/04/12 10:37:23;;;;;;;;;;;;;;;29.61;28.65;95740.25;11397556;26;19927;-76
2024/04/12 10:39:49;;;;;;;;;;;;;;;37.94;20.46;95685.47;11412151;26;19927;-88
2024/04/12 10:44:51;;;;;;;;;;;;;;;39.42;19.97;95676.66;11379208;26;19928;-85
2024/04/12 10:49:51;;;;;;;;;;;;;;;40.32;20.26;95665.88;11379742;26;19995;-76
2024/04/12 10:54:53;;;;;;;;;;;;;;;40.19;17.65;95665.03;11410552;26;19927;-77
2024/04/12 10:59:54;;;;;;;;;;;;;;;40.38;18.10;95654.84;11409766;26;19999;-75
2024/04/12 11:05:24;;;;;;;;;;;;;;;38.74;19.39;95648.94;11408741;26;19935;-76
2024/04/12 11:10:25;;;;;;;;;;;;;;;39.64;18.97;95646.78;11396192;26;19934;-75
2024/04/12 11:31:14;;;;;;;;;;;;;;;30.77;26.23;95639.09;11407884;26;19927;-76
2024/04/12 11:36:19;;;;;;;;;;;;;;;29.56;27.38;95643.63;11409236;26;20211;-74
2024/04/12 11:41:23;;;;;;;;;;;;;;;28.13;29.46;95623.41;11376532;26;19935;-76
2024/04/12 11:46:24;;;;;;;;;;;;;;;27.75;29.91;95625.00;11407603;26;19995;-76
2024/04/12 11:51:33;;;;;;;;;;;;;;;27.70;30.07;95612.28;11407980;26;20327;-75
2024/04/12 11:56:34;;;;;;;;;;;;;;;27.45;32.17;95611.75;11374026;26;19936;-76
2024/04/12 12:01:37;;;;;;;;;;;;;;;27.03;31.00;95607.63;11399828;26;20295;-76
2024/04/12 12:06:38;;;;;;;;;;;;;;;26.95;31.85;95605.84;11401081;26;19963;-75
2024/04/12 12:11:42;;;;;;;;;;;;;;;27.10;32.20;95601.47;11390495;26;19927;-75
2024/04/12 12:16:43;;;;;;;;;;;;;;;27.13;32.79;95589.72;11406630;26;20323;-75
2024/04/12 12:21:43;;;;;;;;;;;;;;;27.18;32.43;95586.66;11406694;26;19938;-76
2024/04/12 12:26:44;;;;;;;;;;;;;;;27.33;30.88;95589.75;11407558;26;19927;-76
2024/04/12 12:31:46;;;;;;;;;;;;;;;27.16;31.35;95577.94;11407632;26;19931;-76
2024/04/12 12:36:49;;;;;;;;;;;;;;;27.28;32.09;95571.50;11405943;26;19953;-75
2024/04/12 12:41:50;;;;;;;;;;;;;;;27.08;32.52;95567.91;11406115;26;19927;-75
2024/04/12 12:46:50;;;;;;;;;;;;;;;27.11;31.18;95554.19;11405564;26;19991;-75
2024/04/12 12:51:51;;;;;;;;;;;;;;;27.05;31.64;95552.88;11405493;26;19985;-76
2024/04/12 12:56:53;;;;;;;;;;;;;;;26.88;31.21;95545.00;11406094;26;19939;-75
2024/04/12 13:01:53;;;;;;;;;;;;;;;26.63;31.10;95550.69;11405628;26;20295;-75
2024/04/12 13:06:55;;;;;;;;;;;;;;;26.32;31.71;95555.06;11405656;26;19951;-76
2024/04/12 13:11:55;;;;;;;;;;;;;;;25.48;31.75;95548.44;11406471;26;19938;-76
2024/04/12 13:16:56;;;;;;;;;;;;;;;25.75;31.70;95538.56;11404758;26;19931;-75
2024/04/12 13:21:57;;;;;;;;;;;;;;;25.76;32.16;95537.44;11404567;26;20242;-75
2024/04/12 13:26:59;;;;;;;;;;;;;;;25.66;31.33;95539.88;11403687;26;19950;-76
2024/04/12 13:32:00;;;;;;;;;;;;;;;25.44;32.45;95524.72;11402970;26;20003;-76
2024/04/12 13:37:02;;;;;;;;;;;;;;;25.30;32.99;95531.38;11402767;26;20359;-75
2024/04/12 13:42:03;;;;;;;;;;;;;;;24.81;34.27;95537.78;11400272;26;19934;-76
2024/04/12 13:52:23;;;;;;;;;;;;;;;24.60;34.74;95521.41;11401233;26;20255;-76
2024/04/12 13:57:28;;;;;;;;;;;;;;;24.19;35.01;95536.94;11402776;26;19931;-76
2024/04/12 14:02:32;;;;;;;;;;;;;;;24.31;35.16;95528.72;11404629;26;19943;-77
2024/04/12 14:07:34;;;;;;;;;;;;;;;24.25;35.13;95532.03;11371646;26;20396;-76
2024/04/12 14:12:34;;;;;;;;;;;;;;;24.23;35.13;95518.63;11403997;26;19928;-75
2024/04/12 14:17:34;;;;;;;;;;;;;;;24.16;35.33;95516.44;11400812;26;20342;-75
2024/04/12 14:22:35;;;;;;;;;;;;;;;23.98;36.90;95518.59;11403924;26;20485;-74
2024/04/12 14:27:35;;;;;;;;;;;;;;;24.01;35.92;95514.38;11403743;26;20228;-75
2024/04/12 14:32:35;;;;;;;;;;;;;;;23.86;35.74;95513.84;11395292;26;19928;-76
2024/04/12 14:37:36;;;;;;;;;;;;;;;23.73;36.38;95509.47;11398162;26;19968;-75
2024/04/12 14:42:36;;;;;;;;;;;;;;;23.64;36.15;95508.75;11399167;26;20268;-76
2024/04/12 14:47:40;;;;;;;;;;;;;;;23.63;36.48;95510.69;11400429;26;19928;-76
2024/04/12 14:52:43;;;;;;;;;;;;;;;23.54;38.12;95499.00;11368528;26;19928;-75
2024/04/12 14:57:52;;;;;;;;;;;;;;;23.49;38.74;95507.44;11373528;26;19928;-75
2024/04/12 15:55:26;;;;;;;;;;;;;;;22.92;45.60;95489.66;11408214;26;19939;-76
2024/04/12 16:11:04;;;;;;;;;;;;;;;22.56;46.30;95489.09;11406331;26;20334;-76
2024/04/12 16:16:05;;;;;;;;;;;;;;;22.49;46.97;95491.53;11405943;26;19927;-76
2024/04/12 16:21:05;;;;;;;;;;;;;;;22.45;48.00;95490.59;11403352;26;20792;-75
2024/04/12 16:26:06;;;;;;;;;;;;;;;22.42;49.07;95488.53;11401133;26;19942;-76
2024/04/12 16:31:06;;;;;;;;;;;;;;;22.28;50.06;95484.03;11402129;26;19934;-76
2024/04/12 16:36:07;;;;;;;;;;;;;;;22.27;50.89;95492.59;11406387;26;19928;-76
2024/04/12 16:41:10;;;;;;;;;;;;;;;22.15;52.11;95496.03;11373435;26;19942;-74
2024/04/12 16:46:11;;;;;;;;;;;;;;;21.98;53.17;95494.97;11406005;26;19964;-72
2024/04/12 16:51:11;;;;;;;;;;;;;;;21.89;54.10;95502.41;11400003;26;20628;-73
2024/04/12 16:56:12;;;;;;;;;;;;;;;21.75;55.88;95499.88;11402980;26;20029;-73
2024/04/12 17:01:12;;;;;;;;;;;;;;;21.68;56.89;95502.31;11402233;26;20031;-71
2024/04/12 17:06:13;;;;;;;;;;;;;;;21.56;57.77;95505.72;11405798;26;19931;-74
2024/04/12 17:11:13;;;;;;;;;;;;;;;21.39;58.85;95508.44;11404513;26;19935;-73
2024/04/12 17:16:14;;;;;;;;;;;;;;;21.30;59.48;95511.97;11401972;26;19928;-73
2024/04/12 17:21:14;;;;;;;;;;;;;;;21.21;61.44;95513.94;11399512;26;19996;-74
2024/04/12 17:26:15;;;;;;;;;;;;;;;21.20;63.19;95517.00;11402587;26;19935;-75
2024/04/12 17:31:15;;;;;;;;;;;;;;;21.03;63.56;95520.50;11366659;26;19935;-74
2024/04/12 17:36:16;;;;;;;;;;;;;;;20.79;66.24;95532.69;11397007;26;20330;-70
2024/04/12 17:41:21;;;;;;;;;;;;;;;20.47;68.90;95531.94;11381257;26;20234;-70
2024/04/12 17:46:21;;;;;;;;;;;;;;;20.36;71.47;95547.00;11391908;26;19928;-73
2024/04/12 17:51:21;;;;;;;;;;;;;;;20.19;72.89;95545.03;11401102;26;19928;-78
2024/04/12 17:56:22;;;;;;;;;;;;;;;20.06;72.47;95549.47;11404087;26;19928;-75
2024/04/12 18:01:23;;;;;;;;;;;;;;;20.01;74.34;95552.31;11388639;26;20258;-74
2024/04/12 18:06:23;;;;;;;;;;;;;;;19.88;74.65;95549.34;11377273;26;20254;-81
2024/04/12 18:11:24;;;;;;;;;;;;;;;19.82;75.52;95547.09;11402302;26;19990;-77
2024/04/12 18:16:25;;;;;;;;;;;;;;;19.71;76.59;95560.16;11401185;26;19935;-73
2024/04/12 18:21:25;;;;;;;;;;;;;;;19.62;78.40;95555.44;11369328;26;19995;-76
2024/04/12 18:26:26;;;;;;;;;;;;;;;19.65;81.36;95559.47;11371243;26;20351;-79
2024/04/12 18:31:26;;;;;;;;;;;;;;;19.64;84.50;95558.66;11380409;26;20249;-80
2024/04/12 18:36:34;;;;;;;;;;;;;;;19.46;82.53;95556.94;11411404;26;20364;-79
2024/04/12 18:46:53;;;;;;;;;;;;;;;19.21;85.10;95558.34;11391752;26;20339;-71
2024/04/12 18:51:54;;;;;;;;;;;;;;;19.07;81.61;95567.34;11372736;26;19931;-69
2024/04/12 18:56:56;;;;;;;;;;;;;;;19.02;82.76;95572.09;11407145;26;19938;-70
2024/04/12 19:01:56;;;;;;;;;;;;;;;19.05;87.41;95575.03;11407817;26;19934;-71
2024/04/12 19:06:56;;;;;;;;;;;;;;;18.93;89.33;95574.75;11407216;26;19935;-70
2024/04/12 19:11:57;;;;;;;;;;;;;;;18.64;88.49;95577.78;11404734;26;20291;-71
2024/04/12 19:16:57;;;;;;;;;;;;;;;18.55;88.80;95573.06;11401979;26;20270;-70
2024/04/12 19:21:58;;;;;;;;;;;;;;;18.39;89.80;95585.34;11405082;26;20362;-71
2024/04/12 19:26:59;;;;;;;;;;;;;;;18.15;91.93;95580.91;11372404;26;19928;-72
2024/04/12 19:31:59;;;;;;;;;;;;;;;18.09;91.75;95579.41;11406838;26;19947;-70
2024/04/12 19:37:00;;;;;;;;;;;;;;;17.84;95.27;95583.34;11404734;26;20436;-71
2024/04/12 19:42:00;;;;;;;;;;;;;;;17.74;95.84;95582.41;11372962;26;19931;-70
2024/04/12 19:47:01;;;;;;;;;;;;;;;17.63;96.44;95577.44;11408279;26;19931;-82
2024/04/12 19:52:04;;;;;;;;;;;;;;;17.50;96.87;95579.81;11404561;26;19935;-74
2024/04/12 19:57:05;;;;;;;;;;;;;;;17.49;97.99;95586.34;11383484;26;19934;-79
2024/04/12 20:02:06;;;;;;;;;;;;;;;17.43;98.90;95593.78;11405761;26;19934;-73
2024/04/12 20:07:06;;;;;;;;;;;;;;;17.51;100.00;95608.63;11373970;26;20335;-79
2024/04/12 20:12:07;;;;;;;;;;;;;;;17.43;100.00;95617.44;11400859;26;19934;-74
2024/04/12 20:17:07;;;;;;;;;;;;;;;17.18;100.00;95619.41;11390860;26;20224;-73
2024/04/12 20:22:08;;;;;;;;;;;;;;;17.01;100.00;95614.50;11392213;26;20263;-74
2024/04/12 20:27:09;;;;;;;;;;;;;;;16.85;100.00;95624.72;11391269;26;19948;-73
2024/04/12 20:32:22;;;;;;;;;;;;;;;16.97;100.00;95616.19;11382204;26;19934;-74
2024/04/12 20:37:23;;;;;;;;;;;;;;;16.84;100.00;95627.72;11398353;26;20387;-74
2024/04/12 20:42:25;;;;;;;;;;;;;;;16.84;100.00;95627.72;11403960;26;19999;-74
2024/04/12 20:47:27;;;;;;;;;;;;;;;16.79;100.00;95620.47;11372371;26;19999;-74
2024/04/12 20:52:27;;;;;;;;;;;;;;;16.71;100.00;95626.53;11402520;26;20610;-75
2024/04/12 20:57:28;;;;;;;;;;;;;;;16.63;100.00;95621.72;11397130;26;19927;-75
2024/04/12 21:02:29;;;;;;;;;;;;;;;16.54;100.00;95629.72;11404152;26;19940;-75
2024/04/12 21:07:29;;;;;;;;;;;;;;;16.54;100.00;95627.78;11402842;26;20004;-75
2024/04/12 21:12:29;;;;;;;;;;;;;;;16.55;100.00;95639.47;11401474;26;19938;-75
2024/04/12 21:17:33;;;;;;;;;;;;;;;16.34;100.00;95642.41;11403880;26;19927;-76
2024/04/12 21:22:34;;;;;;;;;;;;;;;16.32;100.00;95650.00;11403084;26;20242;-76
2024/04/12 21:27:34;;;;;;;;;;;;;;;16.17;100.00;95656.41;11382050;26;19932;-75
2024/04/12 21:32:34;;;;;;;;;;;;;;;16.13;100.00;95649.94;11401997;26;19999;-75
2024/04/12 21:37:35;;;;;;;;;;;;;;;16.14;100.00;95650.75;11403343;26;19939;-79
2024/04/12 21:42:35;;;;;;;;;;;;;;;16.03;100.00;95650.03;11373398;26;19931;-78
2024/04/12 21:47:36;;;;;;;;;;;;;;;16.00;100.00;95656.03;11371853;26;19934;-78
2024/04/12 21:52:36;;;;;;;;;;;;;;;15.90;100.00;95651.50;11404637;26;19928;-78
2024/04/12 21:57:43;;;;;;;;;;;;;;;15.86;100.00;95645.81;11371857;26;19927;-78
2024/04/12 22:02:45;;;;;;;;;;;;;;;15.84;100.00;95649.94;11403594;26;20369;-78
2024/04/12 22:07:45;;;;;;;;;;;;;;;15.87;100.00;95652.06;11402663;26;19939;-78
2024/04/12 22:12:45;;;;;;;;;;;;;;;15.63;100.00;95644.63;11370546;26;19935;-77
2024/04/12 22:17:46;;;;;;;;;;;;;;;15.60;100.00;95641.66;11368929;26;19927;-78
2024/04/12 22:22:46;;;;;;;;;;;;;;;15.60;100.00;95647.91;11402120;26;19931;-78
2024/04/12 22:27:46;;;;;;;;;;;;;;;15.40;100.00;95648.06;11368555;26;20034;-77
2024/04/12 22:32:47;;;;;;;;;;;;;;;15.35;100.00;95636.16;11400360;26;20031;-77
2024/04/12 22:37:48;;;;;;;;;;;;;;;15.33;100.00;95637.53;11401412;26;19996;-77
2024/04/12 22:42:48;;;;;;;;;;;;;;;15.30;100.00;95633.47;11377899;26;19928;-77
2024/04/12 22:47:48;;;;;;;;;;;;;;;15.36;100.00;95637.78;11401419;26;20526;-77
2024/04/12 22:52:50;;;;;;;;;;;;;;;15.40;100.00;95640.72;11400721;26;19927;-77
2024/04/12 22:57:50;;;;;;;;;;;;;;;15.30;100.00;95643.50;11368607;26;19995;-78
2024/04/12 23:02:51;;;;;;;;;;;;;;;15.38;100.00;95640.22;11400899;26;20365;-78
2024/04/12 23:07:51;;;;;;;;;;;;;;;15.35;100.00;95648.91;11400111;26;19935;-78
2024/04/12 23:12:51;;;;;;;;;;;;;;;15.26;100.00;95637.84;11376979;26;19927;-77
2024/04/12 23:17:51;;;;;;;;;;;;;;;15.06;100.00;95638.78;11370281;26;20337;-78
2024/04/12 23:22:52;;;;;;;;;;;;;;;15.00;100.00;95632.59;11374194;26;19935;-77
2024/04/12 23:27:52;;;;;;;;;;;;;;;14.96;100.00;95628.81;11407383;26;21016;-77
2024/04/12 23:32:52;;;;;;;;;;;;;;;15.11;100.00;95632.50;11373276;26;19996;-75
2024/04/12 23:37:52;;;;;;;;;;;;;;;15.25;100.00;95627.28;11407814;26;19931;-74
2024/04/12 23:42:53;;;;;;;;;;;;;;;15.38;100.00;95626.66;11407329;26;19927;-75
2024/04/12 23:47:54;;;;;;;;;;;;;;;15.47;100.00;95632.28;11406292;26;20219;-75
2024/04/12 23:52:54;;;;;;;;;;;;;;;15.54;100.00;95628.19;11407761;26;19935;-75
2024/04/12 23:57:55;;;;;;;;;;;;;;;15.57;100.00;95626.78;11406822;26;19927;-71
